KBGM/BGM METAR and TAF weather

Enter ICAO airport designator
Station Type Date Time Source
KBGM METAR 2022/08/13 11:53 UTC NOAA

KBGM 131153Z 00000KT 10SM CLR 13/08 A3019 RMK AO2 SLP219 T01330083 10133 20100 53008


Station Type Date Time Source
KBGM Decoded METAR 2022/08/13 11:53 UTC NOAA

BINGHAMTON REGIONAL AIRPORT, NY, United States (KBGM) 42-12N 75-59W 492M
Aug 13, 2022 - 07:53 AM EDT / 2022.08.13 1153 UTC
Wind: Calm:0
Visibility: 10 mile(s):0
Sky conditions: clear
Temperature: 55.9 F (13.3 C)
Dew Point: 46.9 F (8.3 C)
Relative Humidity: 71%
Pressure (altimeter): 30.19 in. Hg (1022 hPa)
Pressure tendency: 0.02 inches (0.8 hPa) higher than three hours ago
ob: KBGM 131153Z 00000KT 10SM CLR 13/08 A3019 RMK AO2 SLP219 T01330083 10133 20100 53008
cycle: 12

Station Type Date Time Source
KBGM TAF 2022/08/13 12:22 UTC NOAA

TAF KBGM 131120Z 1312/1412 VRB05KT P6SM SKC
FM131600 35006KT P6SM FEW060
FM140000 VRB03KT P6SM SCT250

Example: see airport list